Date,TemperatureHighF,TemperatureAvgF,TemperatureLowF,DewpointHighF,DewpointAvgF,DewpointLowF,HumidityHigh,HumidityAvg,HumidityLow,PressureMaxIn,PressureMinIn,WindSpeedMaxMPH,WindSpeedAvgMPH,GustSpeedMaxMPH,PrecipitationSumIn
2013-1-1,66.0,45.4,34.0,45.5,34.8,27.1,91,69,29,30.17,30.06,4,1,5,0.12
2013-1-2,58.3,50.7,46.2,43.7,40.9,37.9,89,70,49,30.26,30.03,7,2,11,0.13
2013-1-3,70.9,52.1,41.7,41.4,37.6,34.2,87,62,29,30.50,30.26,5,2,8,0.00
2013-1-4,66.6,47.9,37.2,39.2,36.0,32.4,93,67,32,30.50,30.29,4,1,4,0.00
2013-1-5,64.8,47.0,36.1,41.9,37.2,31.5,97,72,39,30.29,30.09,7,1,8,0.00
2013-1-6,68.2,48.9,36.0,45.1,39.0,32.5,99,73,31,30.23,30.09,4,1,5,0.00
2013-1-7,73.4,50.8,39.9,43.0,38.4,34.5,92,68,27,30.20,30.06,5,1,8,0.00
2013-1-8,59.0,45.3,36.9,43.2,37.9,31.6,95,77,46,30.29,30.20,4,1,4,0.00
2013-1-9,62.2,50.1,43.0,42.4,38.4,33.1,91,67,37,30.20,30.09,4,1,5,0.00
2013-1-10,54.5,49.5,45.5,47.3,41.9,36.9,95,76,59,30.12,29.67,4,1,5,0.18
2013-1-11,59.4,46.9,41.2,49.6,41.4,36.7,99,83,53,29.70,29.50,16,2,16,0.17
2013-1-12,68.2,48.0,34.9,43.5,37.5,31.5,99,71,32,29.85,29.67,4,1,7,0.00
2013-1-13,71.4,52.7,45.9,68.5,45.8,38.8,95,78,58,29.85,29.58,15,3,26,2.02
2013-1-14,86.0,57.1,47.5,78.1,47.5,36.3,90,71,51,29.73,29.55,11,4,17,0.16
2013-1-15,76.3,49.5,40.8,69.6,36.4,26.4,89,63,34,29.73,29.41,9,2,13,0.14
2013-1-16,47.8,42.6,39.4,45.3,39.3,34.2,95,88,77,29.41,29.26,14,3,14,2.26
2013-1-17,55.4,42.7,37.9,39.4,34.5,31.8,90,74,49,29.29,29.11,17,3,19,0.07
2013-1-18,55.0,43.2,35.1,34.0,28.8,24.4,84,59,34,29.47,29.17,12,5,20,0.02
2013-1-19,56.3,40.6,31.5,49.6,33.9,24.6,87,77,67,29.50,29.35,9,2,12,0.16
2013-1-20,73.9,57.2,51.3,69.4,51.2,44.4,92,81,62,29.35,29.26,7,4,13,0.82
2013-1-21,62.8,51.5,45.3,49.8,41.9,35.4,94,71,44,29.38,29.20,9,2,16,0.21
2013-1-22,65.1,48.9,40.5,43.3,35.8,25.2,94,64,31,29.61,29.35,16,4,21,0.00
2013-1-23,55.6,45.1,39.6,51.4,38.7,33.1,95,79,61,29.64,29.38,9,3,11,0.79
2013-1-24,63.1,47.4,41.5,41.4,37.1,32.4,95,70,37,29.41,29.23,5,2,10,0.21
2013-1-25,61.2,45.9,35.4,36.5,30.6,25.5,91,59,31,29.47,29.26,11,3,16,0.00
2013-1-26,61.9,43.7,33.3,28.0,24.5,19.6,77,50,25,29.70,29.47,8,2,11,0.00
2013-1-27,60.1,40.5,30.7,31.8,22.0,-99.9,79,55,28,30.03,29.70,6,2,8,0.00
2013-1-28,47.3,43.7,36.9,44.8,38.7,29.8,98,83,63,30.09,29.85,8,3,14,0.76
2013-1-29,69.6,48.3,36.9,45.9,38.6,30.6,99,74,27,30.26,30.09,7,1,9,0.00
2013-1-30,70.0,50.9,37.2,46.4,37.9,30.7,95,67,28,30.26,30.20,6,1,8,0.00
2013-1-31,78.6,50.9,44.1,48.9,26.9,-99.9,90,57,26,30.23,30.15,9,2,10,0.00